Time,TemperatureF,DewpointF,PressureIn,WindDirection,WindDirectionDegrees,WindSpeedMPH,WindSpeedGustMPH,Humidity,HourlyPrecipIn,Conditions,Clouds,dailyrainin,SoftwareType,DateUTC
2013-02-20 00:11:00,23.0,8.0,30.25,North,-999,-999.0,-999.0,53,-99.99,,,-99.99,,2013-02-20 06:11:00,
2013-02-20 00:21:00,23.0,8.0,30.25,North,-999,-999.0,-999.0,53,-99.99,,,-99.99,,2013-02-20 06:21:00,
2013-02-20 00:32:00,22.0,8.0,30.24,North,-999,-999.0,-999.0,52,-99.99,,,-99.99,,2013-02-20 06:32:00,
2013-02-20 00:42:00,23.0,8.0,30.24,North,-999,-999.0,-999.0,51,-99.99,,,-99.99,,2013-02-20 06:42:00,
2013-02-20 00:51:00,23.0,8.0,30.24,North,-999,-999.0,-999.0,51,-99.99,,,-99.99,,2013-02-20 06:51:00,
2013-02-20 01:01:00,24.0,8.0,30.23,North,-999,-999.0,-999.0,50,-99.99,,,-99.99,,2013-02-20 07:01:00,
2013-02-20 01:11:00,24.0,8.0,30.23,North,-999,-999.0,-999.0,49,-99.99,,,-99.99,,2013-02-20 07:11:00,
2013-02-20 01:21:00,24.0,8.0,30.23,North,-999,-999.0,-999.0,49,-99.99,,,-99.99,,2013-02-20 07:21:00,
2013-02-20 01:30:00,24.0,7.0,30.24,North,-999,-999.0,-999.0,49,-99.99,,,-99.99,,2013-02-20 07:30:00,
2013-02-20 01:31:00,24.0,6.0,30.23,North,-999,-999.0,-999.0,47,-99.99,,,-99.99,,2013-02-20 07:31:00,
2013-02-20 01:42:00,24.0,6.0,30.24,North,-999,-999.0,-999.0,47,-99.99,,,-99.99,,2013-02-20 07:42:00,
2013-02-20 01:51:00,24.0,6.0,30.24,North,-999,-999.0,-999.0,47,-99.99,,,-99.99,,2013-02-20 07:51:00,
2013-02-20 02:05:00,24.0,6.0,30.24,North,-999,-999.0,-999.0,47,-99.99,,,-99.99,,2013-02-20 08:05:00,
2013-02-20 02:11:00,24.0,7.0,30.24,North,-999,-999.0,-999.0,49,-99.99,,,-99.99,,2013-02-20 08:11:00,
2013-02-20 02:21:00,24.0,7.0,30.24,North,-999,-999.0,-999.0,49,-99.99,,,-99.99,,2013-02-20 08:21:00,
2013-02-20 02:42:00,22.0,6.0,30.24,North,-999,-999.0,-999.0,48,-99.99,,,-99.99,,2013-02-20 08:42:00,
2013-02-20 02:52:00,22.0,6.0,30.24,North,-999,-999.0,-999.0,48,-99.99,,,-99.99,,2013-02-20 08:52:00,
2013-02-20 03:01:00,22.0,9.0,30.25,North,-999,-999.0,-999.0,55,-99.99,,,-99.99,,2013-02-20 09:01:00,
2013-02-20 03:11:00,22.0,8.0,30.24,North,-999,-999.0,-999.0,55,-99.99,,,-99.99,,2013-02-20 09:11:00,
2013-02-20 03:21:00,22.0,8.0,30.24,North,-999,-999.0,-999.0,55,-99.99,,,-99.99,,2013-02-20 09:21:00,
2013-02-20 03:31:00,22.0,8.0,30.25,North,-999,-999.0,-999.0,56,-99.99,,,-99.99,,2013-02-20 09:31:00,
2013-02-20 03:42:00,22.0,6.0,30.25,North,-999,-999.0,-999.0,50,-99.99,,,-99.99,,2013-02-20 09:42:00,
2013-02-20 03:51:00,22.0,6.0,30.25,North,-999,-999.0,-999.0,50,-99.99,,,-99.99,,2013-02-20 09:51:00,
2013-02-20 04:01:00,22.0,6.0,30.23,North,-999,-999.0,-999.0,50,-99.99,,,-99.99,,2013-02-20 10:01:00,
2013-02-20 04:12:00,22.0,6.0,30.22,North,-999,-999.0,-999.0,49,-99.99,,,-99.99,,2013-02-20 10:12:00,
2013-02-20 04:22:00,22.0,6.0,30.22,North,-999,-999.0,-999.0,49,-99.99,,,-99.99,,2013-02-20 10:22:00,
2013-02-20 04:32:00,22.0,7.0,30.22,North,-999,-999.0,-999.0,52,-99.99,,,-99.99,,2013-02-20 10:32:00,
2013-02-20 04:42:00,22.0,6.0,30.22,North,-999,-999.0,-999.0,50,-99.99,,,-99.99,,2013-02-20 10:42:00,
2013-02-20 04:51:00,22.0,6.0,30.22,North,-999,-999.0,-999.0,50,-99.99,,,-99.99,,2013-02-20 10:51:00,
2013-02-20 05:02:00,21.0,5.0,30.22,North,-999,-999.0,-999.0,49,-99.99,,,-99.99,,2013-02-20 11:02:00,
2013-02-20 05:11:00,21.0,6.0,30.22,North,-999,-999.0,-999.0,50,-99.99,,,-99.99,,2013-02-20 11:11:00,
2013-02-20 05:21:00,21.0,6.0,30.22,North,-999,-999.0,-999.0,50,-99.99,,,-99.99,,2013-02-20 11:21:00,
2013-02-20 05:32:00,22.0,6.0,30.23,North,-999,-999.0,-999.0,50,-99.99,,,-99.99,,2013-02-20 11:32:00,
2013-02-20 05:42:00,22.0,6.0,30.23,North,-999,-999.0,-999.0,51,-99.99,,,-99.99,,2013-02-20 11:42:00,
2013-02-20 05:52:00,22.0,6.0,30.23,North,-999,-999.0,-999.0,51,-99.99,,,-99.99,,2013-02-20 11:52:00,
2013-02-20 06:02:00,22.0,6.0,30.24,North,-999,-999.0,-999.0,49,-99.99,,,-99.99,,2013-02-20 12:02:00,
2013-02-20 06:12:00,22.0,6.0,30.24,North,-999,-999.0,-999.0,50,-99.99,,,-99.99,,2013-02-20 12:12:00,
2013-02-20 06:21:00,22.0,6.0,30.24,North,-999,-999.0,-999.0,50,-99.99,,,-99.99,,2013-02-20 12:21:00,
2013-02-20 06:32:00,22.0,6.0,30.24,North,-999,-999.0,-999.0,50,-99.99,,,-99.99,,2013-02-20 12:32:00,
2013-02-20 06:42:00,22.0,6.0,30.24,North,-999,-999.0,-999.0,50,-99.99,,,-99.99,,2013-02-20 12:42:00,
2013-02-20 06:52:00,22.0,6.0,30.24,North,-999,-999.0,-999.0,50,-99.99,,,-99.99,,2013-02-20 12:52:00,
2013-02-20 07:01:00,22.0,6.0,30.24,North,-999,-999.0,-999.0,49,-99.99,,,-99.99,,2013-02-20 13:01:00,
2013-02-20 07:11:00,22.0,6.0,30.24,North,-999,-999.0,-999.0,49,-99.99,,,-99.99,,2013-02-20 13:11:00,
2013-02-20 07:22:00,22.0,6.0,30.24,North,-999,-999.0,-999.0,49,-99.99,,,-99.99,,2013-02-20 13:22:00,
2013-02-20 07:32:00,22.0,5.0,30.25,North,-999,-999.0,-999.0,47,-99.99,,,-99.99,,2013-02-20 13:32:00,
2013-02-20 07:42:00,22.0,5.0,30.25,North,-999,-999.0,-999.0,47,-99.99,,,-99.99,,2013-02-20 13:42:00,
2013-02-20 07:51:00,22.0,5.0,30.25,North,-999,-999.0,-999.0,47,-99.99,,,-99.99,,2013-02-20 13:51:00,
2013-02-20 08:01:00,22.0,4.0,30.26,North,-999,-999.0,-999.0,45,-99.99,,,-99.99,,2013-02-20 14:01:00,
2013-02-20 08:11:00,22.0,3.0,30.26,North,-999,-999.0,-999.0,42,-99.99,,,-99.99,,2013-02-20 14:11:00,
2013-02-20 08:21:00,22.0,3.0,30.26,North,-999,-999.0,-999.0,42,-99.99,,,-99.99,,2013-02-20 14:21:00,
2013-02-20 08:32:00,22.0,4.0,30.25,North,-999,-999.0,-999.0,44,-99.99,,,-99.99,,2013-02-20 14:32:00,
2013-02-20 08:42:00,22.0,4.0,30.25,North,-999,-999.0,-999.0,44,-99.99,,,-99.99,,2013-02-20 14:42:00,
2013-02-20 08:52:00,22.0,4.0,30.25,North,-999,-999.0,-999.0,44,-99.99,,,-99.99,,2013-02-20 14:52:00,
2013-02-20 09:01:00,22.0,3.0,30.26,North,-999,-999.0,-999.0,42,-99.99,,,-99.99,,2013-02-20 15:01:00,
2013-02-20 09:11:00,23.0,3.0,30.26,North,-999,-999.0,-999.0,42,-99.99,,,-99.99,,2013-02-20 15:11:00,
2013-02-20 09:22:00,23.0,3.0,30.26,North,-999,-999.0,-999.0,42,-99.99,,,-99.99,,2013-02-20 15:22:00,
2013-02-20 09:32:00,23.0,5.0,30.26,North,-999,-999.0,-999.0,44,-99.99,,,-99.99,,2013-02-20 15:32:00,
2013-02-20 09:42:00,24.0,4.0,30.26,North,-999,-999.0,-999.0,42,-99.99,,,-99.99,,2013-02-20 15:42:00,
2013-02-20 09:52:00,24.0,4.0,30.26,North,-999,-999.0,-999.0,42,-99.99,,,-99.99,,2013-02-20 15:52:00,
2013-02-20 10:00:00,24.0,5.0,30.26,North,-999,-999.0,-999.0,43,-99.99,,,-99.99,,2013-02-20 16:00:00,
2013-02-20 10:01:00,24.0,5.0,30.26,North,-999,-999.0,-999.0,43,-99.99,,,-99.99,,2013-02-20 16:01:00,
2013-02-20 10:12:00,24.0,5.0,30.26,North,-999,-999.0,-999.0,44,-99.99,,,-99.99,,2013-02-20 16:12:00,
2013-02-20 10:21:00,24.0,5.0,30.26,North,-999,-999.0,-999.0,44,-99.99,,,-99.99,,2013-02-20 16:21:00,
2013-02-20 10:32:00,24.0,5.0,30.26,North,-999,-999.0,-999.0,43,-99.99,,,-99.99,,2013-02-20 16:32:00,
2013-02-20 10:42:00,24.0,5.0,30.26,North,-999,-999.0,-999.0,43,-99.99,,,-99.99,,2013-02-20 16:42:00,
2013-02-20 10:52:00,24.0,5.0,30.26,North,-999,-999.0,-999.0,43,-99.99,,,-99.99,,2013-02-20 16:52:00,
2013-02-20 11:42:00,26.0,4.0,30.26,North,-999,-999.0,-999.0,38,-99.99,,,-99.99,,2013-02-20 17:42:00,
2013-02-20 11:52:00,26.0,4.0,30.26,North,-999,-999.0,-999.0,38,-99.99,,,-99.99,,2013-02-20 17:52:00,
2013-02-20 12:00:00,26.0,4.0,30.26,North,-999,-999.0,-999.0,38,-99.99,,,-99.99,,2013-02-20 18:00:00,
2013-02-20 12:02:00,26.0,4.0,30.26,North,-999,-999.0,-999.0,38,-99.99,,,-99.99,,2013-02-20 18:02:00,
2013-02-20 12:11:00,26.0,4.0,30.26,North,-999,-999.0,-999.0,38,-99.99,,,-99.99,,2013-02-20 18:11:00,
2013-02-20 12:21:00,26.0,4.0,30.26,North,-999,-999.0,-999.0,38,-99.99,,,-99.99,,2013-02-20 18:21:00,
2013-02-20 12:32:00,26.0,4.0,30.27,North,-999,-999.0,-999.0,38,-99.99,,,-99.99,,2013-02-20 18:32:00,
2013-02-20 12:42:00,26.0,4.0,30.26,North,-999,-999.0,-999.0,38,-99.99,,,-99.99,,2013-02-20 18:42:00,
2013-02-20 12:52:00,26.0,4.0,30.26,North,-999,-999.0,-999.0,38,-99.99,,,-99.99,,2013-02-20 18:52:00,
2013-02-20 13:00:00,29.0,6.0,30.19,North,-999,-999.0,-999.0,37,-99.99,,,-99.99,,2013-02-20 19:00:00,
2013-02-20 13:11:00,27.0,5.0,30.23,North,-999,-999.0,-999.0,38,-99.99,,,-99.99,,2013-02-20 19:11:00,
2013-02-20 13:21:00,27.0,5.0,30.23,North,-999,-999.0,-999.0,38,-99.99,,,-99.99,,2013-02-20 19:21:00,
2013-02-20 13:31:00,28.0,5.0,30.22,North,-999,-999.0,-999.0,37,-99.99,,,-99.99,,2013-02-20 19:31:00,
2013-02-20 13:41:00,29.0,6.0,30.19,North,-999,-999.0,-999.0,37,-99.99,,,-99.99,,2013-02-20 19:41:00,
2013-02-20 13:50:00,31.0,6.0,30.19,North,-999,-999.0,-999.0,34,-99.99,,,-99.99,,2013-02-20 19:50:00,
2013-02-20 13:52:00,29.0,6.0,30.19,North,-999,-999.0,-999.0,37,-99.99,,,-99.99,,2013-02-20 19:52:00,
2013-02-20 14:11:00,30.0,6.0,30.19,North,-999,-999.0,-999.0,35,-99.99,,,-99.99,,2013-02-20 20:11:00,
2013-02-20 14:21:00,30.0,6.0,30.19,North,-999,-999.0,-999.0,35,-99.99,,,-99.99,,2013-02-20 20:21:00,
2013-02-20 14:31:00,31.0,6.0,30.19,North,-999,-999.0,-999.0,34,-99.99,,,-99.99,,2013-02-20 20:31:00,
2013-02-20 14:41:00,31.0,6.0,30.19,North,-999,-999.0,-999.0,34,-99.99,,,-99.99,,2013-02-20 20:41:00,
2013-02-20 15:30:00,31.0,5.0,30.15,North,-999,-999.0,-999.0,33,-99.99,,,-99.99,,2013-02-20 21:30:00,
2013-02-20 15:52:00,31.0,6.0,30.16,North,-999,-999.0,-999.0,34,-99.99,,,-99.99,,2013-02-20 21:52:00,
2013-02-20 16:01:00,31.0,6.0,30.16,North,-999,-999.0,-999.0,34,-99.99,,,-99.99,,2013-02-20 22:01:00,
2013-02-20 16:11:00,31.0,5.0,30.15,North,-999,-999.0,-999.0,33,-99.99,,,-99.99,,2013-02-20 22:11:00,
2013-02-20 16:20:00,31.0,6.0,30.15,North,-999,-999.0,-999.0,34,-99.99,,,-99.99,,2013-02-20 22:20:00,
2013-02-20 16:21:00,31.0,5.0,30.15,North,-999,-999.0,-999.0,33,-99.99,,,-99.99,,2013-02-20 22:21:00,
2013-02-20 17:00:00,30.0,7.0,30.13,North,-999,-999.0,-999.0,36,-99.99,,,-99.99,,2013-02-20 23:00:00,
2013-02-20 17:01:00,31.0,6.0,30.15,North,-999,-999.0,-999.0,34,-99.99,,,-99.99,,2013-02-20 23:01:00,
2013-02-20 17:12:00,31.0,6.0,30.15,North,-999,-999.0,-999.0,34,-99.99,,,-99.99,,2013-02-20 23:12:00,
2013-02-20 17:32:00,31.0,7.0,30.14,North,-999,-999.0,-999.0,36,-99.99,,,-99.99,,2013-02-20 23:32:00,
2013-02-20 17:42:00,30.0,7.0,30.13,North,-999,-999.0,-999.0,36,-99.99,,,-99.99,,2013-02-20 23:42:00,
2013-02-20 17:52:00,30.0,7.0,30.13,North,-999,-999.0,-999.0,36,-99.99,,,-99.99,,2013-02-20 23:52:00,
2013-02-20 18:32:00,30.0,8.0,30.13,North,-999,-999.0,-999.0,38,-99.99,,,-99.99,,2013-02-21 00:32:00,
2013-02-20 18:42:00,30.0,8.0,30.13,North,-999,-999.0,-999.0,38,-99.99,,,-99.99,,2013-02-21 00:42:00,
2013-02-20 18:52:00,30.0,8.0,30.13,North,-999,-999.0,-999.0,38,-99.99,,,-99.99,,2013-02-21 00:52:00,
2013-02-20 19:01:00,30.0,8.0,30.13,North,-999,-999.0,-999.0,38,-99.99,,,-99.99,,2013-02-21 01:01:00,
2013-02-20 19:11:00,30.0,8.0,30.13,North,-999,-999.0,-999.0,38,-99.99,,,-99.99,,2013-02-21 01:11:00,
2013-02-20 19:21:00,30.0,8.0,30.13,North,-999,-999.0,-999.0,38,-99.99,,,-99.99,,2013-02-21 01:21:00,
2013-02-20 19:32:00,30.0,8.0,30.13,North,-999,-999.0,-999.0,38,-99.99,,,-99.99,,2013-02-21 01:32:00,
2013-02-20 19:42:00,30.0,8.0,30.12,North,-999,-999.0,-999.0,38,-99.99,,,-99.99,,2013-02-21 01:42:00,
2013-02-20 19:50:00,30.0,8.0,30.11,North,-999,-999.0,-999.0,40,-99.99,,,-99.99,,2013-02-21 01:50:00,
2013-02-20 19:51:00,30.0,8.0,30.12,North,-999,-999.0,-999.0,38,-99.99,,,-99.99,,2013-02-21 01:51:00,
2013-02-20 20:01:00,30.0,8.0,30.13,North,-999,-999.0,-999.0,39,-99.99,,,-99.99,,2013-02-21 02:01:00,
2013-02-20 20:11:00,30.0,8.0,30.13,North,-999,-999.0,-999.0,39,-99.99,,,-99.99,,2013-02-21 02:11:00,
2013-02-20 20:21:00,30.0,8.0,30.13,North,-999,-999.0,-999.0,39,-99.99,,,-99.99,,2013-02-21 02:21:00,
2013-02-20 20:32:00,30.0,8.0,30.11,North,-999,-999.0,-999.0,40,-99.99,,,-99.99,,2013-02-21 02:32:00,
2013-02-20 20:42:00,30.0,8.0,30.11,North,-999,-999.0,-999.0,40,-99.99,,,-99.99,,2013-02-21 02:42:00,
2013-02-20 21:02:00,30.0,9.0,30.11,North,-999,-999.0,-999.0,41,-99.99,,,-99.99,,2013-02-21 03:02:00,
2013-02-20 21:12:00,30.0,9.0,30.11,North,-999,-999.0,-999.0,40,-99.99,,,-99.99,,2013-02-21 03:12:00,
2013-02-20 21:21:00,30.0,9.0,30.11,North,-999,-999.0,-999.0,40,-99.99,,,-99.99,,2013-02-21 03:21:00,
2013-02-20 21:32:00,30.0,9.0,30.10,North,-999,-999.0,-999.0,40,-99.99,,,-99.99,,2013-02-21 03:32:00,
2013-02-20 21:42:00,30.0,9.0,30.11,North,-999,-999.0,-999.0,40,-99.99,,,-99.99,,2013-02-21 03:42:00,
2013-02-20 21:51:00,30.0,9.0,30.11,North,-999,-999.0,-999.0,40,-99.99,,,-99.99,,2013-02-21 03:51:00,
2013-02-20 22:01:00,30.0,9.0,30.10,North,-999,-999.0,-999.0,40,-99.99,,,-99.99,,2013-02-21 04:01:00,
2013-02-20 22:11:00,30.0,9.0,30.11,North,-999,-999.0,-999.0,40,-99.99,,,-99.99,,2013-02-21 04:11:00,
2013-02-20 22:22:00,30.0,9.0,30.11,North,-999,-999.0,-999.0,40,-99.99,,,-99.99,,2013-02-21 04:22:00,
2013-02-20 22:32:00,30.0,10.0,30.11,North,-999,-999.0,-999.0,41,-99.99,,,-99.99,,2013-02-21 04:32:00,
2013-02-20 22:42:00,30.0,9.0,30.11,North,-999,-999.0,-999.0,40,-99.99,,,-99.99,,2013-02-21 04:42:00,
2013-02-20 22:52:00,31.0,9.0,30.10,North,-999,-999.0,-999.0,40,-99.99,,,-99.99,,2013-02-21 04:52:00,
2013-02-20 23:02:00,31.0,9.0,30.10,North,-999,-999.0,-999.0,40,-99.99,,,-99.99,,2013-02-21 05:02:00,
2013-02-20 23:12:00,31.0,9.0,30.10,North,-999,-999.0,-999.0,39,-99.99,,,-99.99,,2013-02-21 05:12:00,
2013-02-20 23:22:00,31.0,9.0,30.10,North,-999,-999.0,-999.0,39,-99.99,,,-99.99,,2013-02-21 05:22:00,
2013-02-20 23:34:00,31.0,8.0,30.10,North,-999,-999.0,-999.0,37,-99.99,,,-99.99,,2013-02-21 05:34:00,
2013-02-20 23:44:00,31.0,8.0,30.11,North,-999,-999.0,-999.0,37,-99.99,,,-99.99,,2013-02-21 05:44:00,
2013-02-20 23:53:00,31.0,8.0,30.11,North,-999,-999.0,-999.0,37,-99.99,,,-99.99,,2013-02-21 05:53:00,